Time;durP1;ratioP1;P1;durP2;ratioP2;P2;SDS_P1;SDS_P2;PMS_P1;PMS_P2;Temp;Humidity;BMP_temperature;BMP_pressure;BME280_temperature;BME280_humidity;BME280_pressure;Samples;Min_cycle;Max_cycle;Signal;HPM_P1;HPM_P2
2022/05/23 00:01:45;;;;;;;5.97;2.00;;;13.50;99.90;;;;;;4931673;29;20050;-81
2022/05/23 00:04:11;;;;;;;5.73;1.83;;;13.50;99.90;;;;;;4912820;28;20070;-80
2022/05/23 00:06:37;;;;;;;4.07;2.30;;;13.60;99.90;;;;;;4962961;28;20054;-80
2022/05/23 00:09:04;;;;;;;4.57;1.90;;;13.60;99.90;;;;;;4964862;28;20054;-80
2022/05/23 00:11:31;;;;;;;5.37;2.03;;;13.50;99.90;;;;;;4969382;28;20054;-80
2022/05/23 00:13:57;;;;;;;9.00;2.47;;;13.50;99.90;;;;;;4928663;29;20051;-79
2022/05/23 00:16:33;;;;;;;5.43;2.10;;;13.50;99.90;;;;;;4969112;28;20065;-80
2022/05/23 00:18:59;;;;;;;3.70;1.97;;;13.50;99.90;;;;;;4918239;29;20043;-80
2022/05/23 00:21:25;;;;;;;6.37;2.10;;;13.50;99.90;;;;;;4937716;28;20043;-79
2022/05/23 00:23:50;;;;;;;4.00;2.00;;;13.40;99.90;;;;;;4924799;29;20071;-80
2022/05/23 00:26:20;;;;;;;6.67;2.20;;;13.40;99.90;;;;;;4940797;29;20047;-80
2022/05/23 00:28:46;;;;;;;4.70;1.73;;;13.40;99.90;;;;;;4945870;29;20047;-80
2022/05/23 00:31:12;;;;;;;5.37;2.10;;;13.30;99.90;;;;;;4930823;29;20047;-80
2022/05/23 00:36:24;;;;;;;6.20;2.30;;;13.20;99.90;;;;;;4941615;29;20047;-79
2022/05/23 00:38:51;;;;;;;6.33;2.13;;;13.20;99.90;;;;;;4929901;29;20054;-80
2022/05/23 00:44:11;;;;;;;5.70;2.33;;;13.10;99.90;;;;;;4936774;29;20058;-80
2022/05/23 00:46:49;;;;;;;3.43;1.97;;;13.10;99.90;;;;;;4913621;28;20055;-79
2022/05/23 00:49:19;;;;;;;5.53;2.30;;;13.00;99.90;;;;;;4967748;28;20075;-80
2022/05/23 00:51:45;;;;;;;5.43;2.20;;;13.00;99.90;;;;;;4921380;29;20058;-81
2022/05/23 00:54:11;;;;;;;4.20;2.40;;;13.00;99.90;;;;;;4932395;28;20043;-81
2022/05/23 00:56:43;;;;;;;5.27;2.43;;;12.90;99.90;;;;;;4933372;29;20054;-79
2022/05/23 00:59:12;;;;;;;4.20;1.90;;;12.90;99.90;;;;;;4929381;28;20043;-80
2022/05/23 01:01:39;;;;;;;5.30;1.97;;;12.90;99.90;;;;;;4927335;28;20078;-80
2022/05/23 01:04:06;;;;;;;6.10;2.40;;;12.90;99.90;;;;;;4951901;28;20047;-80
2022/05/23 01:06:35;;;;;;;4.27;2.00;;;12.90;99.90;;;;;;4931943;29;20054;-79
2022/05/23 01:09:01;;;;;;;4.63;2.00;;;12.80;99.90;;;;;;4921209;29;20118;-79
2022/05/23 01:11:27;;;;;;;4.50;2.00;;;12.80;99.90;;;;;;4928413;28;20043;-79
2022/05/23 01:13:54;;;;;;;5.80;2.20;;;12.90;99.90;;;;;;4963549;28;20038;-81
2022/05/23 01:16:20;;;;;;;5.57;2.00;;;12.80;99.90;;;;;;4924054;29;20528;-80
2022/05/23 01:18:49;;;;;;;8.20;2.57;;;12.90;99.90;;;;;;4918573;29;20098;-80
2022/05/23 01:21:27;;;;;;;4.70;2.23;;;12.90;99.90;;;;;;4936469;29;20074;-80
2022/05/23 01:24:00;;;;;;;5.90;2.07;;;12.90;99.90;;;;;;4954861;28;20552;-80
2022/05/23 01:26:34;;;;;;;4.10;1.87;;;12.90;99.90;;;;;;4925782;29;20075;-79
2022/05/23 01:29:00;;;;;;;5.20;1.80;;;12.90;99.90;;;;;;4913144;28;20047;-82
2022/05/23 01:31:37;;;;;;;3.97;1.77;;;12.90;99.90;;;;;;4913314;29;20082;-80
2022/05/23 01:34:12;;;;;;;6.13;2.00;;;13.00;99.90;;;;;;4936312;29;20035;-79
2022/05/23 01:36:48;;;;;;;3.73;1.73;;;13.00;99.90;;;;;;4915438;29;20051;-81
2022/05/23 01:39:13;;;;;;;5.93;2.00;;;13.00;99.90;;;;;;4944056;29;20047;-79
2022/05/23 01:41:40;;;;;;;5.33;1.97;;;13.00;99.90;;;;;;4929529;29;20039;-79
2022/05/23 01:44:07;;;;;;;3.63;1.73;;;13.00;99.90;;;;;;4911575;29;20051;-79
2022/05/23 01:46:36;;;;;;;6.53;2.20;;;13.00;99.90;;;;;;4917013;29;20067;-81
2022/05/23 01:49:07;;;;;;;4.50;1.63;;;13.00;99.90;;;;;;4937376;29;20043;-80
2022/05/23 01:51:34;;;;;;;5.47;1.80;;;13.00;99.90;;;;;;4948775;29;20047;-81
2022/05/23 01:54:00;;;;;;;4.80;2.27;;;13.00;99.90;;;;;;4921445;29;20095;-80
2022/05/23 01:56:27;;;;;;;5.20;2.27;;;13.00;99.90;;;;;;4937839;29;20174;-81
2022/05/23 02:01:40;;;;;;;8.37;1.80;;;13.00;99.90;;;;;;4929049;28;20161;-79
2022/05/23 02:04:08;;;;;;;5.40;2.10;;;13.00;99.90;;;;;;4911948;29;20075;-79
2022/05/23 02:06:41;;;;;;;4.97;1.80;;;13.00;99.90;;;;;;4937606;29;20139;-79
2022/05/23 02:09:29;;;;;;;5.97;2.10;;;13.00;99.90;;;;;;4924533;29;20070;-81
2022/05/23 02:12:17;;;;;;;4.67;1.93;;;13.00;99.90;;;;;;4937661;29;20039;-79
2022/05/23 02:14:47;;;;;;;4.23;2.00;;;13.00;99.90;;;;;;4938985;29;21375;-80
2022/05/23 02:17:33;;;;;;;6.37;2.10;;;13.00;99.90;;;;;;4901079;29;20130;-82
2022/05/23 02:19:59;;;;;;;6.50;2.10;;;13.00;99.90;;;;;;4920980;29;20189;-80
2022/05/23 02:22:24;;;;;;;6.53;2.00;;;13.00;99.90;;;;;;4891695;28;20059;-80
2022/05/23 02:25:02;;;;;;;4.43;1.80;;;13.00;99.90;;;;;;4935478;28;20051;-81
2022/05/23 02:27:30;;;;;;;4.03;1.80;;;13.00;99.90;;;;;;4952631;28;20054;-83
2022/05/23 02:29:58;;;;;;;6.27;2.10;;;13.00;99.90;;;;;;4907978;28;20047;-81
2022/05/23 02:32:24;;;;;;;9.10;2.10;;;13.00;99.90;;;;;;4950745;28;20074;-83
2022/05/23 02:34:50;;;;;;;5.23;2.10;;;13.00;99.90;;;;;;4954778;28;20047;-80
2022/05/23 02:37:16;;;;;;;6.10;2.13;;;13.00;99.90;;;;;;4929011;28;20125;-81
2022/05/23 02:39:45;;;;;;;4.63;2.33;;;13.00;99.90;;;;;;4933193;29;20038;-80
2022/05/23 02:42:11;;;;;;;4.40;2.10;;;13.10;99.90;;;;;;4946028;29;20094;-80
2022/05/23 02:44:37;;;;;;;3.57;2.20;;;13.10;99.90;;;;;;4953823;28;20039;-80
2022/05/23 02:47:07;;;;;;;4.33;1.87;;;13.10;99.90;;;;;;4940685;29;20035;-80
2022/05/23 02:49:37;;;;;;;6.70;2.30;;;13.10;99.90;;;;;;4939986;29;20058;-81
2022/05/23 02:52:03;;;;;;;5.67;2.20;;;13.10;99.90;;;;;;4937150;29;20039;-83
2022/05/23 02:54:47;;;;;;;;;;;13.10;99.90;;;;;;4939665;29;20054;-80
2022/05/23 02:57:13;;;;;;;5.90;2.33;;;13.10;99.90;;;;;;4954494;28;19922;-80
2022/05/23 02:59:38;;;;;;;7.30;2.07;;;13.10;99.90;;;;;;4935113;29;20070;-79
2022/05/23 03:04:55;;;;;;;7.63;2.43;;;13.10;99.90;;;;;;4926261;29;20043;-79
2022/05/23 03:07:21;;;;;;;3.77;2.20;;;13.10;99.90;;;;;;4926687;28;20058;-80
2022/05/23 03:09:57;;;;;;;7.93;2.30;;;13.10;99.90;;;;;;4942455;29;20051;-79
2022/05/23 03:12:23;;;;;;;11.90;2.73;;;13.10;99.90;;;;;;4917663;28;20053;-80
2022/05/23 03:14:49;;;;;;;6.77;2.50;;;13.10;99.90;;;;;;4915418;29;20066;-79
2022/05/23 03:17:16;;;;;;;5.83;2.40;;;13.10;99.90;;;;;;4946416;29;20069;-80
2022/05/23 03:19:44;;;;;;;4.83;2.50;;;13.10;99.90;;;;;;4932272;29;20048;-80
2022/05/23 03:27:41;;;;;;;6.73;2.97;;;13.10;99.90;;;;;;4931232;29;20521;-81
2022/05/23 03:30:15;;;;;;;5.30;2.07;;;13.20;99.90;;;;;;4920503;29;20050;-82
2022/05/23 03:32:51;;;;;;;4.73;2.50;;;13.20;99.90;;;;;;4946863;29;20477;-80
2022/05/23 03:35:17;;;;;;;4.57;2.13;;;13.20;99.90;;;;;;4913380;29;20561;-80
2022/05/23 03:37:43;;;;;;;5.83;2.40;;;13.20;99.90;;;;;;4959831;28;20051;-83
2022/05/23 03:40:09;;;;;;;5.40;2.70;;;13.20;99.90;;;;;;4935870;29;20500;-79
2022/05/23 03:42:41;;;;;;;7.33;2.67;;;13.20;99.90;;;;;;4915617;29;20125;-79
2022/05/23 03:45:08;;;;;;;6.27;2.23;;;13.20;99.90;;;;;;4929356;28;20046;-81
2022/05/23 03:47:41;;;;;;;7.00;2.90;;;13.20;99.90;;;;;;4938457;29;20192;-80
2022/05/23 03:50:14;;;;;;;6.33;2.80;;;13.20;99.90;;;;;;4918086;29;20047;-79
2022/05/23 03:52:40;;;;;;;6.10;2.47;;;13.20;99.90;;;;;;4917806;29;20035;-79
2022/05/23 03:55:07;;;;;;;7.23;2.63;;;13.20;99.90;;;;;;4932137;29;20050;-81
2022/05/23 03:57:34;;;;;;;7.77;2.63;;;13.20;99.90;;;;;;4979522;28;20051;-80
2022/05/23 03:59:59;;;;;;;6.03;2.73;;;13.20;99.90;;;;;;4931271;29;20050;-80
2022/05/23 04:02:27;;;;;;;5.13;2.70;;;13.20;99.90;;;;;;4918593;28;20058;-80
2022/05/23 04:04:53;;;;;;;6.27;2.80;;;13.10;99.90;;;;;;4938919;28;20035;-79
2022/05/23 04:07:51;;;;;;;5.10;2.53;;;13.10;99.90;;;;;;4951630;29;20131;-79
2022/05/23 04:10:25;;;;;;;6.50;2.93;;;13.10;99.90;;;;;;4939461;29;20051;-81
2022/05/23 04:12:51;;;;;;;6.63;2.83;;;13.10;99.90;;;;;;4936248;29;20082;-80
2022/05/23 04:15:18;;;;;;;7.07;2.90;;;13.10;99.90;;;;;;4949573;29;20046;-81
2022/05/23 04:17:45;;;;;;;8.00;2.87;;;13.10;99.90;;;;;;4931760;28;20043;-83
2022/05/23 04:20:12;;;;;;;5.73;2.50;;;13.10;99.90;;;;;;4957465;28;20058;-80
2022/05/23 04:22:47;;;;;;;8.67;2.97;;;13.00;99.90;;;;;;4937838;29;20413;-81
2022/05/23 04:25:19;;;;;;;6.07;2.63;;;13.10;99.90;;;;;;4938671;28;20078;-80
2022/05/23 04:27:45;;;;;;;5.00;2.73;;;13.10;99.90;;;;;;4949775;28;20146;-83
2022/05/23 04:30:11;;;;;;;8.57;3.47;;;13.10;99.90;;;;;;4937377;28;20070;-83
2022/05/23 04:35:26;;;;;;;;;;;13.00;99.90;;;;;;4925966;29;20067;-79
2022/05/23 04:37:54;;;;;;;5.57;2.83;;;13.00;99.90;;;;;;4928745;28;19941;-80
2022/05/23 04:40:29;;;;;;;8.37;3.00;;;13.00;99.90;;;;;;4951018;29;20066;-79
2022/05/23 04:42:56;;;;;;;6.33;3.27;;;13.10;99.90;;;;;;4928060;28;20106;-80
2022/05/23 04:45:22;;;;;;;10.47;3.00;;;13.10;99.90;;;;;;4930725;29;20051;-80
2022/05/23 04:50:51;;;;;;;9.63;3.30;;;13.10;99.90;;;;;;4923940;29;20039;-82
2022/05/23 04:53:17;;;;;;;8.17;2.80;;;13.20;99.90;;;;;;4929887;28;20528;-80
2022/05/23 04:56:00;;;;;;;7.97;3.30;;;13.30;99.90;;;;;;4934464;29;20043;-82
2022/05/23 04:58:26;;;;;;;8.43;3.60;;;13.30;99.90;;;;;;4938564;29;20450;-80
2022/05/23 05:00:53;;;;;;;7.53;3.50;;;13.40;99.90;;;;;;4921561;29;20050;-80
2022/05/23 05:03:19;;;;;;;5.83;2.90;;;13.50;99.90;;;;;;4952929;28;20525;-82
2022/05/23 05:05:48;;;;;;;5.50;3.97;;;13.60;99.90;;;;;;4924368;29;20043;-80
2022/05/23 05:08:14;;;;;;;5.90;3.10;;;13.60;99.90;;;;;;4925057;28;20043;-81
2022/05/23 05:10:43;;;;;;;6.50;3.27;;;13.70;99.90;;;;;;4928543;29;20035;-80
2022/05/23 05:13:10;;;;;;;7.70;3.30;;;13.80;99.90;;;;;;4926786;28;20047;-80
2022/05/23 05:15:36;;;;;;;6.53;3.57;;;13.90;99.90;;;;;;4903312;29;20047;-80
2022/05/23 05:18:05;;;;;;;7.87;3.40;;;13.90;99.90;;;;;;4927963;29;20044;-80
2022/05/23 05:20:34;;;;;;;10.30;3.37;;;13.90;99.90;;;;;;4926869;29;20050;-81
2022/05/23 05:23:20;;;;;;;8.97;3.67;;;13.90;99.90;;;;;;4930035;29;20047;-80
2022/05/23 05:25:58;;;;;;;8.97;4.00;;;14.00;99.90;;;;;;4927237;28;20075;-81
2022/05/23 05:28:35;;;;;;;9.17;3.60;;;14.00;99.90;;;;;;4926079;29;20114;-80
2022/05/23 05:31:05;;;;;;;8.80;3.83;;;14.10;99.90;;;;;;4928451;29;20078;-80
2022/05/23 05:33:36;;;;;;;6.33;3.87;;;14.20;99.90;;;;;;4928195;29;20058;-80
2022/05/23 05:36:06;;;;;;;9.57;3.70;;;14.30;99.90;;;;;;4927918;29;20066;-82
2022/05/23 05:38:36;;;;;;;9.80;3.50;;;14.30;99.90;;;;;;4926865;29;20078;-80
2022/05/23 05:41:07;;;;;;;7.33;3.80;;;14.30;99.90;;;;;;4927511;29;20082;-80
2022/05/23 05:43:40;;;;;;;6.73;3.50;;;14.40;99.90;;;;;;4964727;28;20105;-80
2022/05/23 05:46:16;;;;;;;5.87;3.87;;;14.40;99.90;;;;;;4934546;29;20066;-80
2022/05/23 05:48:50;;;;;;;8.37;3.70;;;14.50;99.90;;;;;;4957415;28;20071;-80
2022/05/23 05:51:20;;;;;;;6.07;3.73;;;14.60;99.90;;;;;;4922795;29;20071;-80
2022/05/23 05:54:06;;;;;;;5.77;3.77;;;14.60;99.90;;;;;;4924566;29;20050;-80
2022/05/23 05:56:39;;;;;;;10.23;4.20;;;14.70;99.90;;;;;;4925538;29;20130;-82
2022/05/23 05:59:06;;;;;;;8.70;3.70;;;14.70;99.90;;;;;;4912952;29;20047;-83
2022/05/23 06:01:37;;;;;;;8.80;3.57;;;14.80;99.90;;;;;;4910809;29;20070;-80
2022/05/23 06:04:03;;;;;;;11.37;3.60;;;14.80;99.90;;;;;;4909611;29;20558;-80
2022/05/23 06:12:14;;;;;;;7.83;3.90;;;15.10;99.90;;;;;;4953689;28;20130;-80
2022/05/23 06:14:43;;;;;;;6.53;4.10;;;15.20;99.90;;;;;;4924684;28;20106;-80
2022/05/23 06:17:10;;;;;;;8.67;3.63;;;15.40;99.90;;;;;;4929329;29;20058;-80
2022/05/23 06:19:43;;;;;;;9.97;4.63;;;15.50;99.90;;;;;;4920933;29;20134;-84
2022/05/23 06:22:16;;;;;;;6.93;4.07;;;15.60;99.90;;;;;;4923098;29;20071;-79
2022/05/23 06:24:54;;;;;;;6.00;4.00;;;15.80;99.90;;;;;;4924433;29;20035;-79
2022/05/23 06:27:20;;;;;;;8.80;3.90;;;16.00;99.90;;;;;;4942035;28;20494;-79
2022/05/23 06:30:10;;;;;;;10.40;4.53;;;16.10;99.90;;;;;;4909893;29;20047;-81
2022/05/23 06:33:03;;;;;;;7.17;3.87;;;16.20;99.90;;;;;;4917510;29;20067;-80
2022/05/23 06:35:39;;;;;;;12.10;4.57;;;16.40;99.90;;;;;;4935631;29;20560;-80
2022/05/23 06:38:07;;;;;;;8.33;3.87;;;16.50;99.90;;;;;;4927523;29;20047;-81
2022/05/23 06:40:38;;;;;;;11.30;4.57;;;16.60;99.90;;;;;;4953206;28;20051;-81
2022/05/23 06:43:22;;;;;;;;;;;16.70;99.90;;;;;;4926273;28;20145;-80
2022/05/23 06:46:22;;;;;;;11.63;4.10;;;16.90;99.90;;;;;;4947499;28;19933;-80
2022/05/23 06:49:06;;;;;;;9.03;4.30;;;16.90;99.90;;;;;;4942859;28;20154;-78
2022/05/23 06:51:52;;;;;;;8.70;3.93;;;17.00;99.90;;;;;;4935050;28;20039;-79
2022/05/23 06:54:23;;;;;;;9.63;4.17;;;17.20;99.90;;;;;;4955406;29;20043;-80
2022/05/23 06:57:01;;;;;;;9.17;4.37;;;17.30;99.90;;;;;;4925662;29;20134;-80
2022/05/23 06:59:27;;;;;;;10.63;3.60;;;17.40;99.90;;;;;;4921897;29;20035;-80
2022/05/23 07:01:54;;;;;;;9.20;4.17;;;17.50;99.90;;;;;;4926037;29;20057;-79
2022/05/23 07:13:38;;;;;;;8.70;4.30;;;17.90;99.90;;;;;;4957195;28;20045;-78
2022/05/23 07:16:05;;;;;;;8.77;4.33;;;18.00;99.90;;;;;;4900977;28;20509;-77
2022/05/23 07:18:33;;;;;;;6.90;3.97;;;18.10;99.90;;;;;;4918022;29;20047;-76
2022/05/23 07:21:07;;;;;;;5.60;3.58;;;18.20;99.90;;;;;;4919929;29;20138;-75
2022/05/23 07:23:53;;;;;;;8.43;3.87;;;18.30;99.90;;;;;;4904022;28;20516;-76
2022/05/23 07:26:42;;;;;;;10.67;4.33;;;18.40;99.90;;;;;;4929131;28;21740;-75
2022/05/23 07:29:08;;;;;;;7.27;3.73;;;18.60;99.90;;;;;;4950486;28;20043;-74
2022/05/23 07:31:33;;;;;;;5.43;3.63;;;18.70;99.90;;;;;;4932771;29;20043;-74
2022/05/23 07:34:01;;;;;;;6.43;3.87;;;18.70;99.90;;;;;;4930890;28;20395;-76
2022/05/23 07:36:27;;;;;;;6.57;3.43;;;18.80;99.90;;;;;;4919591;29;20058;-74
2022/05/23 07:38:56;;;;;;;9.53;4.20;;;19.00;99.90;;;;;;4903164;29;20102;-74
2022/05/23 07:41:40;;;;;;;9.90;3.90;;;19.10;99.90;;;;;;4916740;29;20521;-76
2022/05/23 07:44:08;;;;;;;8.27;3.67;;;19.20;99.90;;;;;;4944432;28;20051;-76
2022/05/23 07:46:34;;;;;;;8.03;3.80;;;19.30;99.90;;;;;;4900745;29;20058;-74
2022/05/23 07:49:03;;;;;;;7.17;4.03;;;19.40;99.90;;;;;;4926003;29;20521;-76
2022/05/23 07:51:30;;;;;;;8.63;3.80;;;19.40;99.90;;;;;;4947414;28;20047;-74
2022/05/23 08:02:31;;;;;;;9.97;4.23;;;19.70;99.90;;;;;;4933137;29;20043;-75
2022/05/23 08:05:05;;;;;;;7.07;3.70;;;19.80;99.90;;;;;;4917214;29;20051;-76
2022/05/23 08:07:31;;;;;;;6.90;3.70;;;19.90;99.90;;;;;;4932838;29;20429;-76
2022/05/23 08:10:00;;;;;;;6.50;3.80;;;20.00;99.90;;;;;;4917028;29;20094;-76
2022/05/23 08:12:28;;;;;;;9.03;3.60;;;20.10;99.90;;;;;;4915564;28;20047;-75
2022/05/23 08:14:54;;;;;;;8.87;4.10;;;20.20;99.90;;;;;;4919744;29;20047;-76
2022/05/23 08:17:28;;;;;;;8.50;3.53;;;20.30;99.90;;;;;;4930549;28;20063;-75
2022/05/23 08:19:55;;;;;;;7.07;3.70;;;20.40;99.90;;;;;;4915145;29;20057;-76
2022/05/23 08:22:32;;;;;;;6.40;3.60;;;20.50;99.90;;;;;;4917496;29;20039;-76
2022/05/23 08:25:06;;;;;;;8.73;4.00;;;20.50;99.90;;;;;;4914907;29;20321;-77
2022/05/23 08:27:34;;;;;;;8.30;3.57;;;20.60;99.90;;;;;;4932798;28;20051;-76
2022/05/23 08:30:00;;;;;;;6.10;3.87;;;20.60;99.90;;;;;;4915883;29;20054;-74
2022/05/23 08:32:28;;;;;;;10.27;3.63;;;20.70;99.90;;;;;;4960931;28;20035;-76
2022/05/23 08:35:01;;;;;;;9.37;3.90;;;20.80;99.90;;;;;;4916354;29;20047;-77
2022/05/23 08:37:28;;;;;;;6.30;3.47;;;20.90;99.90;;;;;;4932814;28;20310;-75
2022/05/23 08:39:55;;;;;;;5.97;3.30;;;21.00;99.90;;;;;;4917303;29;20406;-75
2022/05/23 08:42:29;;;;;;;8.73;3.13;;;21.20;99.90;;;;;;4917075;29;20069;-77
2022/05/23 08:45:13;;;;;;;7.43;3.63;;;21.40;99.90;;;;;;4917040;29;20164;-74
2022/05/23 08:47:48;;;;;;;5.27;3.60;;;21.50;99.90;;;;;;4914875;29;20114;-75
2022/05/23 08:50:20;;;;;;;9.27;3.40;;;21.60;99.90;;;;;;4945591;28;20043;-75
2022/05/23 08:52:55;;;;;;;7.53;3.60;;;21.70;99.90;;;;;;4915891;29;20122;-77
2022/05/23 08:55:37;;;;;;;7.77;3.07;;;21.80;99.90;;;;;;4933092;29;20872;-75
2022/05/23 08:58:34;;;;;;;10.17;3.30;;;21.90;99.90;;;;;;4908519;29;20059;-77
2022/05/23 09:01:05;;;;;;;6.37;3.27;;;22.10;99.90;;;;;;4932232;28;20063;-77
2022/05/23 09:03:36;;;;;;;6.47;3.10;;;22.20;99.90;;;;;;4946337;29;20043;-78
2022/05/23 09:06:08;;;;;;;7.00;3.17;;;22.30;99.90;;;;;;4915765;28;20126;-77
2022/05/23 09:08:41;;;;;;;7.13;3.03;;;22.40;99.90;;;;;;4929124;29;20051;-76
2022/05/23 09:11:16;;;;;;;6.63;3.53;;;22.60;99.90;;;;;;4943595;28;20054;-76
2022/05/23 09:13:44;;;;;;;9.13;3.30;;;22.70;98.60;;;;;;4945557;28;20047;-76
2022/05/23 09:16:12;;;;;;;6.43;2.73;;;22.70;98.10;;;;;;4915769;29;20401;-75
2022/05/23 09:18:43;;;;;;;5.03;2.67;;;22.90;97.80;;;;;;4917046;29;20058;-76
2022/05/23 09:21:09;;;;;;;6.13;2.60;;;23.10;99.20;;;;;;4925701;29;20075;-74
2022/05/23 09:23:41;;;;;;;6.40;3.00;;;23.30;99.90;;;;;;4915343;29;20075;-74
2022/05/23 09:26:15;;;;;;;7.28;2.33;;;23.70;98.60;;;;;;4898910;29;20434;-76
2022/05/23 09:28:41;;;;;;;6.47;2.67;;;24.10;96.50;;;;;;4946610;28;20063;-77
2022/05/23 09:31:16;;;;;;;6.20;2.17;;;24.30;95.90;;;;;;4966586;28;20043;-77
2022/05/23 09:33:45;;;;;;;6.80;2.28;;;24.50;97.90;;;;;;4965745;28;20039;-76
2022/05/23 09:36:17;;;;;;;4.80;2.03;;;24.90;98.50;;;;;;4920248;28;20413;-77
2022/05/23 09:38:54;;;;;;;5.68;1.80;;;25.20;97.30;;;;;;4933355;28;20458;-76
2022/05/23 09:47:46;;;;;;;9.57;2.30;;;25.10;90.80;;;;;;4935168;28;20055;-76
2022/05/23 09:50:27;;;;;;;3.75;1.80;;;25.00;91.30;;;;;;4918782;28;20043;-75
2022/05/23 09:52:56;;;;;;;4.63;2.05;;;24.80;90.80;;;;;;4966210;28;20035;-76
2022/05/23 09:55:28;;;;;;;4.45;1.92;;;24.70;91.70;;;;;;4965335;28;20055;-76
2022/05/23 09:57:59;;;;;;;3.50;1.75;;;24.60;92.80;;;;;;4906726;29;20043;-76
2022/05/23 10:00:35;;;;;;;9.23;2.30;;;24.60;92.20;;;;;;4935287;28;20051;-77
2022/05/23 10:03:03;;;;;;;5.70;1.88;;;24.50;90.90;;;;;;4948756;29;20043;-76
2022/05/23 10:05:31;;;;;;;6.57;2.17;;;24.50;91.40;;;;;;4950681;28;20035;-75
2022/05/23 10:08:00;;;;;;;3.83;1.88;;;24.50;91.60;;;;;;4965760;28;20523;-77
2022/05/23 10:10:28;;;;;;;6.63;2.30;;;24.50;92.70;;;;;;4932536;29;20256;-76
2022/05/23 10:13:23;;;;;;;6.32;1.80;;;24.60;92.70;;;;;;4948336;28;20051;-75
2022/05/23 10:15:53;;;;;;;6.95;2.58;;;24.60;91.40;;;;;;4949533;28;20043;-75
2022/05/23 10:18:22;;;;;;;4.97;2.40;;;24.60;92.40;;;;;;4904176;29;20078;-75
2022/05/23 10:20:48;;;;;;;5.22;2.13;;;24.70;91.70;;;;;;4918400;29;20043;-77
2022/05/23 10:23:19;;;;;;;5.07;2.33;;;24.80;92.50;;;;;;4935688;29;20110;-75
2022/05/23 10:25:55;;;;;;;6.90;2.60;;;24.90;90.10;;;;;;4932209;28;20035;-76
2022/05/23 10:28:31;;;;;;;6.03;2.22;;;25.10;89.80;;;;;;4921106;29;20079;-77
2022/05/23 10:31:02;;;;;;;7.43;2.20;;;25.40;93.10;;;;;;4915783;29;20068;-77
2022/05/23 10:33:29;;;;;;;6.68;2.30;;;26.10;92.60;;;;;;4918756;29;20047;-76
2022/05/23 10:36:01;;;;;;;5.57;2.13;;;26.50;90.70;;;;;;4933130;29;20584;-77
2022/05/23 10:44:15;;;;;;;8.18;2.35;;;26.60;86.50;;;;;;4964956;28;20075;-77
2022/05/23 10:46:44;;;;;;;4.05;1.95;;;26.70;88.90;;;;;;4933851;29;20051;-75
2022/05/23 10:49:18;;;;;;;3.85;1.90;;;26.90;85.60;;;;;;4947818;28;20086;-76
2022/05/23 10:51:57;;;;;;;8.25;2.28;;;27.10;79.10;;;;;;4932348;29;20055;-74
2022/05/23 10:54:38;;;;;;;4.28;1.77;;;27.30;80.80;;;;;;4933438;29;20078;-76
2022/05/23 10:57:13;;;;;;;5.53;1.80;;;27.60;84.30;;;;;;4964606;28;20055;-77
2022/05/23 10:59:53;;;;;;;4.30;2.00;;;28.00;86.90;;;;;;4947005;28;20105;-78
2022/05/23 11:02:40;;;;;;;3.83;1.88;;;28.30;84.80;;;;;;4948531;28;20059;-76
2022/05/23 11:05:16;;;;;;;4.25;1.73;;;28.50;76.80;;;;;;4924463;29;20047;-75
2022/05/23 11:08:06;;;;;;;4.40;1.67;;;28.30;75.20;;;;;;4967736;28;20047;-76
2022/05/23 11:10:40;;;;;;;4.55;1.77;;;28.00;73.80;;;;;;4948891;29;20066;-75
2022/05/23 11:13:24;;;;;;;3.65;1.70;;;28.00;77.10;;;;;;4933950;29;20585;-76
2022/05/23 11:16:12;;;;;;;6.57;1.70;;;28.10;72.50;;;;;;4933014;28;20067;-77
2022/05/23 11:18:51;;;;;;;4.88;1.75;;;28.20;72.10;;;;;;4948179;28;20428;-75
2022/05/23 11:21:25;;;;;;;3.28;1.30;;;28.40;70.00;;;;;;4964134;28;20125;-75
2022/05/23 11:23:57;;;;;;;4.03;1.88;;;28.60;70.90;;;;;;4917709;28;20051;-77
2022/05/23 11:26:27;;;;;;;5.50;1.50;;;28.60;67.60;;;;;;4916998;29;20043;-75
2022/05/23 11:34:34;;;;;;;6.15;1.70;;;28.80;67.10;;;;;;4935335;29;20062;-78
2022/05/23 11:39:49;;;;;;;3.38;1.70;;;28.20;67.80;;;;;;4934586;29;20039;-75
2022/05/23 11:42:27;;;;;;;4.43;1.40;;;28.00;65.40;;;;;;4934324;28;20051;-76
2022/05/23 11:44:57;;;;;;;5.85;1.63;;;27.50;68.60;;;;;;4932209;29;20745;-76
2022/05/23 11:47:26;;;;;;;4.75;1.80;;;27.50;70.80;;;;;;4946388;29;20075;-75
2022/05/23 11:50:18;;;;;;;4.63;1.92;;;27.70;69.00;;;;;;4936144;29;20094;-77
2022/05/23 11:52:49;;;;;;;4.15;2.00;;;27.80;66.50;;;;;;4928854;29;20107;-75
2022/05/23 11:55:54;;;;;;;5.40;2.03;;;27.90;68.60;;;;;;4964584;28;20041;-75
2022/05/23 11:58:23;;;;;;;5.43;1.95;;;27.90;70.00;;;;;;4916371;29;20062;-75
2022/05/23 12:01:03;;;;;;;5.57;2.20;;;28.00;72.20;;;;;;4916510;29;20054;-74
2022/05/23 12:04:17;;;;;;;5.63;2.15;;;28.20;71.50;;;;;;4913972;29;20456;-77
2022/05/23 12:06:46;;;;;;;5.38;2.40;;;28.40;70.80;;;;;;4948319;28;20395;-75
2022/05/23 12:09:34;;;;;;;5.70;2.33;;;28.60;73.60;;;;;;4930199;29;20133;-75
2022/05/23 12:12:43;;;;;;;6.20;2.40;;;28.70;72.60;;;;;;4932222;28;20505;-76
2022/05/23 12:15:11;;;;;;;3.80;2.00;;;28.90;71.70;;;;;;4947424;28;20051;-75
2022/05/23 12:17:37;;;;;;;5.10;1.77;;;28.70;68.20;;;;;;4916872;29;20130;-77
2022/05/23 12:20:22;;;;;;;6.05;2.20;;;28.10;67.20;;;;;;4916967;29;20094;-75
2022/05/23 12:23:10;;;;;;;7.97;2.10;;;27.50;70.10;;;;;;4918226;28;20440;-77
2022/05/23 12:25:36;;;;;;;3.50;1.80;;;27.10;72.50;;;;;;4963038;28;20054;-75
2022/05/23 12:28:16;;;;;;;7.00;2.47;;;26.80;73.40;;;;;;4963332;28;20043;-74
2022/05/23 12:30:44;;;;;;;4.50;2.40;;;26.50;75.00;;;;;;4946873;28;20062;-76
2022/05/23 12:33:18;;;;;;;6.35;2.42;;;26.20;74.80;;;;;;4941568;28;20046;-75
2022/05/23 12:35:52;;;;;;;9.10;2.40;;;26.00;74.40;;;;;;4944968;28;20074;-76
2022/05/23 12:38:31;;;;;;;5.03;2.55;;;25.90;76.30;;;;;;4928434;28;20141;-76
2022/05/23 12:41:09;;;;;;;5.60;2.38;;;25.80;80.20;;;;;;4923046;29;20043;-76
2022/05/23 12:44:01;;;;;;;6.38;1.90;;;25.80;81.20;;;;;;4911504;28;20481;-75
2022/05/23 12:46:37;;;;;;;5.85;2.00;;;25.80;79.60;;;;;;4947949;29;20046;-77
2022/05/23 12:49:18;;;;;;;3.30;2.10;;;25.70;79.40;;;;;;4936223;29;20509;-76
2022/05/23 12:51:56;;;;;;;5.55;2.20;;;25.60;79.60;;;;;;4952498;29;20055;-75
2022/05/23 12:54:32;;;;;;;5.90;1.95;;;25.40;78.70;;;;;;4951116;28;20075;-76
2022/05/23 12:57:16;;;;;;;3.55;1.90;;;25.20;80.00;;;;;;4934422;29;20049;-76
2022/05/23 12:59:54;;;;;;;6.30;2.20;;;25.10;79.40;;;;;;4938323;28;20043;-75
2022/05/23 13:02:37;;;;;;;5.80;2.10;;;24.90;79.30;;;;;;4937147;29;20051;-76
2022/05/23 13:05:08;;;;;;;6.00;2.67;;;24.70;80.20;;;;;;4962150;28;20052;-75
2022/05/23 13:07:46;;;;;;;4.07;2.10;;;24.60;80.50;;;;;;4953255;28;20122;-74
2022/05/23 13:10:18;;;;;;;8.68;2.15;;;24.50;82.50;;;;;;4938936;29;20047;-76
2022/05/23 13:12:52;;;;;;;7.47;2.50;;;24.40;83.80;;;;;;4958308;28;20075;-76
2022/05/23 13:15:23;;;;;;;7.68;2.40;;;24.40;85.50;;;;;;4946178;23;20053;-80
2022/05/23 13:17:49;;;;;;;6.28;2.38;;;24.40;86.30;;;;;;4964099;28;20046;-77
2022/05/23 13:23:14;;;;;;;7.28;2.45;;;24.50;88.10;;;;;;4960399;28;20638;-78
2022/05/23 13:25:41;;;;;;;4.18;2.30;;;24.50;88.70;;;;;;4955444;28;20059;-80
2022/05/23 13:28:09;;;;;;;4.25;2.35;;;24.50;90.10;;;;;;4939855;28;20043;-78
2022/05/23 13:30:37;;;;;;;6.07;2.55;;;24.50;89.20;;;;;;4962559;28;20434;-80
2022/05/23 13:33:09;;;;;;;4.10;2.30;;;24.50;90.20;;;;;;4943503;28;20049;-78
2022/05/23 13:35:36;;;;;;;6.80;2.67;;;24.50;91.30;;;;;;4923391;28;20057;-80
2022/05/23 13:38:16;;;;;;;5.82;2.50;;;24.50;91.10;;;;;;4957749;28;20054;-79
2022/05/23 13:40:45;;;;;;;5.82;2.80;;;24.40;91.20;;;;;;4940514;28;20117;-78
2022/05/23 13:43:14;;;;;;;4.32;2.55;;;24.30;91.20;;;;;;4956294;28;20054;-79
2022/05/23 13:45:42;;;;;;;6.47;2.92;;;24.30;91.80;;;;;;4954311;28;20050;-77
2022/05/23 13:48:14;;;;;;;7.47;2.88;;;24.20;91.70;;;;;;4942560;28;20094;-78
2022/05/23 13:50:44;;;;;;;8.02;3.05;;;24.10;91.70;;;;;;4962759;28;20043;-78
2022/05/23 13:53:15;;;;;;;7.07;2.97;;;24.00;91.50;;;;;;4943666;28;20077;-78
2022/05/23 13:55:45;;;;;;;6.55;2.38;;;24.00;92.40;;;;;;4957402;28;20043;-79
2022/05/23 13:58:14;;;;;;;4.28;2.45;;;23.90;92.60;;;;;;4958530;28;20046;-77
2022/05/23 14:00:43;;;;;;;4.85;2.80;;;24.00;93.10;;;;;;4938429;28;20119;-79
2022/05/23 14:03:11;;;;;;;5.05;2.95;;;24.00;93.00;;;;;;4959256;28;20038;-78
2022/05/23 14:05:42;;;;;;;7.75;2.92;;;24.10;93.30;;;;;;4936475;28;20465;-77
2022/05/23 14:08:08;;;;;;;7.43;3.13;;;24.10;92.80;;;;;;4954132;28;20055;-79
2022/05/23 14:10:40;;;;;;;7.53;2.63;;;24.10;92.70;;;;;;4953137;28;20513;-79
2022/05/23 14:13:09;;;;;;;4.47;2.45;;;24.20;93.40;;;;;;4932644;28;20051;-81
2022/05/23 14:15:35;;;;;;;8.05;3.13;;;24.30;95.00;;;;;;4947029;28;20064;-79
2022/05/23 14:18:02;;;;;;;9.77;3.65;;;24.30;94.30;;;;;;4938768;28;20046;-79
2022/05/23 14:20:34;;;;;;;5.30;2.78;;;24.30;94.40;;;;;;4976138;28;20079;-80
2022/05/23 14:23:06;;;;;;;5.82;3.50;;;24.20;95.80;;;;;;4962191;28;20110;-78